METAR Data
IDs: Format: Raw Decoded Include TAF

Data at: 1306 UTC 26 Feb 2021

EDVE 261250Z 30011KT 9999 BKN027 09/02 Q1031